sensor_id;sensor_type;location;lat;lon;timestamp;P1;durP1;ratioP1;P2;durP2;ratioP2
24585;SDS011;12743;52.262;6.172;2022-09-09T00:04:53;6.28;;;2.35;;
24585;SDS011;12743;52.262;6.172;2022-09-09T00:07:27;5.47;;;2.20;;
24585;SDS011;12743;52.262;6.172;2022-09-09T00:13:12;5.70;;;1.90;;
24585;SDS011;12743;52.262;6.172;2022-09-09T00:15:44;4.33;;;1.90;;
24585;SDS011;12743;52.262;6.172;2022-09-09T00:18:37;5.90;;;1.73;;
24585;SDS011;12743;52.262;6.172;2022-09-09T00:21:15;4.40;;;1.75;;
24585;SDS011;12743;52.262;6.172;2022-09-09T00:23:55;3.58;;;1.10;;
24585;SDS011;12743;52.262;6.172;2022-09-09T00:29:14;3.33;;;1.33;;
24585;SDS011;12743;52.262;6.172;2022-09-09T00:31:49;5.05;;;1.40;;
24585;SDS011;12743;52.262;6.172;2022-09-09T00:34:21;3.75;;;1.38;;
24585;SDS011;12743;52.262;6.172;2022-09-09T00:36:48;5.63;;;1.63;;
24585;SDS011;12743;52.262;6.172;2022-09-09T00:39:36;5.03;;;1.45;;
24585;SDS011;12743;52.262;6.172;2022-09-09T00:44:38;5.78;;;1.30;;
24585;SDS011;12743;52.262;6.172;2022-09-09T00:58:43;4.53;;;1.33;;
24585;SDS011;12743;52.262;6.172;2022-09-09T01:01:23;4.95;;;1.35;;
24585;SDS011;12743;52.262;6.172;2022-09-09T01:03:56;4.83;;;1.70;;
24585;SDS011;12743;52.262;6.172;2022-09-09T01:09:00;4.40;;;1.60;;
24585;SDS011;12743;52.262;6.172;2022-09-09T01:17:07;6.43;;;2.20;;
24585;SDS011;12743;52.262;6.172;2022-09-09T01:22:21;8.57;;;2.13;;
24585;SDS011;12743;52.262;6.172;2022-09-09T01:28:12;7.97;;;2.50;;
24585;SDS011;12743;52.262;6.172;2022-09-09T01:30:44;7.00;;;2.58;;
24585;SDS011;12743;52.262;6.172;2022-09-09T01:33:14;5.63;;;1.92;;
24585;SDS011;12743;52.262;6.172;2022-09-09T01:35:47;6.03;;;2.67;;
24585;SDS011;12743;52.262;6.172;2022-09-09T01:38:20;5.30;;;2.22;;
24585;SDS011;12743;52.262;6.172;2022-09-09T01:40:49;8.10;;;4.00;;
24585;SDS011;12743;52.262;6.172;2022-09-09T01:43:19;7.03;;;2.78;;
24585;SDS011;12743;52.262;6.172;2022-09-09T01:45:45;7.10;;;4.07;;
24585;SDS011;12743;52.262;6.172;2022-09-09T01:48:13;8.52;;;3.88;;
24585;SDS011;12743;52.262;6.172;2022-09-09T01:53:46;9.80;;;5.47;;
24585;SDS011;12743;52.262;6.172;2022-09-09T01:56:35;8.98;;;4.32;;
24585;SDS011;12743;52.262;6.172;2022-09-09T01:59:23;10.40;;;5.38;;
24585;SDS011;12743;52.262;6.172;2022-09-09T02:02:17;8.18;;;4.03;;
24585;SDS011;12743;52.262;6.172;2022-09-09T02:10:50;9.27;;;4.60;;
24585;SDS011;12743;52.262;6.172;2022-09-09T02:13:35;9.50;;;4.20;;
24585;SDS011;12743;52.262;6.172;2022-09-09T02:16:13;8.75;;;4.40;;
24585;SDS011;12743;52.262;6.172;2022-09-09T02:18:51;9.25;;;4.70;;
24585;SDS011;12743;52.262;6.172;2022-09-09T02:21:28;10.00;;;5.07;;
24585;SDS011;12743;52.262;6.172;2022-09-09T02:23:55;9.38;;;4.82;;
24585;SDS011;12743;52.262;6.172;2022-09-09T02:26:25;8.73;;;4.03;;
24585;SDS011;12743;52.262;6.172;2022-09-09T02:31:47;8.15;;;4.07;;
24585;SDS011;12743;52.262;6.172;2022-09-09T02:34:20;8.13;;;3.83;;
24585;SDS011;12743;52.262;6.172;2022-09-09T02:36:49;8.20;;;3.95;;
24585;SDS011;12743;52.262;6.172;2022-09-09T02:39:17;8.80;;;3.85;;
24585;SDS011;12743;52.262;6.172;2022-09-09T02:41:59;9.27;;;4.18;;
24585;SDS011;12743;52.262;6.172;2022-09-09T02:44:30;7.00;;;3.27;;
24585;SDS011;12743;52.262;6.172;2022-09-09T02:52:26;7.47;;;3.05;;
24585;SDS011;12743;52.262;6.172;2022-09-09T02:54:57;9.75;;;3.75;;
24585;SDS011;12743;52.262;6.172;2022-09-09T02:57:28;8.73;;;3.30;;
24585;SDS011;12743;52.262;6.172;2022-09-09T02:59:57;7.60;;;2.72;;
24585;SDS011;12743;52.262;6.172;2022-09-09T03:02:23;5.40;;;1.95;;
24585;SDS011;12743;52.262;6.172;2022-09-09T03:04:53;5.78;;;2.17;;
24585;SDS011;12743;52.262;6.172;2022-09-09T03:07:19;4.83;;;1.70;;
24585;SDS011;12743;52.262;6.172;2022-09-09T03:09:45;5.30;;;2.10;;
24585;SDS011;12743;52.262;6.172;2022-09-09T03:12:11;5.23;;;1.70;;
24585;SDS011;12743;52.262;6.172;2022-09-09T03:14:38;5.15;;;2.00;;
24585;SDS011;12743;52.262;6.172;2022-09-09T03:17:03;4.90;;;1.73;;
24585;SDS011;12743;52.262;6.172;2022-09-09T03:19:35;4.68;;;1.40;;
24585;SDS011;12743;52.262;6.172;2022-09-09T03:22:01;4.03;;;1.45;;
24585;SDS011;12743;52.262;6.172;2022-09-09T03:24:28;4.95;;;2.08;;
24585;SDS011;12743;52.262;6.172;2022-09-09T03:26:55;5.38;;;2.28;;
24585;SDS011;12743;52.262;6.172;2022-09-09T03:29:21;5.40;;;2.53;;
24585;SDS011;12743;52.262;6.172;2022-09-09T03:31:47;5.10;;;1.30;;
24585;SDS011;12743;52.262;6.172;2022-09-09T03:34:12;7.00;;;2.70;;
24585;SDS011;12743;52.262;6.172;2022-09-09T03:36:38;6.57;;;3.03;;
24585;SDS011;12743;52.262;6.172;2022-09-09T03:39:04;9.05;;;3.10;;
24585;SDS011;12743;52.262;6.172;2022-09-09T03:41:30;7.90;;;3.13;;
24585;SDS011;12743;52.262;6.172;2022-09-09T03:43:57;5.82;;;2.58;;
24585;SDS011;12743;52.262;6.172;2022-09-09T03:46:25;7.40;;;2.42;;
24585;SDS011;12743;52.262;6.172;2022-09-09T03:48:51;4.68;;;2.17;;
24585;SDS011;12743;52.262;6.172;2022-09-09T03:51:17;6.40;;;2.70;;
24585;SDS011;12743;52.262;6.172;2022-09-09T03:53:43;6.97;;;2.42;;
24585;SDS011;12743;52.262;6.172;2022-09-09T03:56:09;6.03;;;2.50;;
24585;SDS011;12743;52.262;6.172;2022-09-09T03:58:36;9.87;;;3.40;;
24585;SDS011;12743;52.262;6.172;2022-09-09T04:01:10;5.13;;;2.55;;
24585;SDS011;12743;52.262;6.172;2022-09-09T04:03:43;6.50;;;2.40;;
24585;SDS011;12743;52.262;6.172;2022-09-09T04:06:10;5.60;;;2.33;;
24585;SDS011;12743;52.262;6.172;2022-09-09T04:08:39;5.95;;;2.90;;
24585;SDS011;12743;52.262;6.172;2022-09-09T04:11:06;6.27;;;2.70;;
24585;SDS011;12743;52.262;6.172;2022-09-09T04:13:33;6.43;;;2.65;;
24585;SDS011;12743;52.262;6.172;2022-09-09T04:16:01;6.07;;;2.60;;
24585;SDS011;12743;52.262;6.172;2022-09-09T04:18:29;7.70;;;3.13;;
24585;SDS011;12743;52.262;6.172;2022-09-09T04:20:54;6.60;;;3.10;;
24585;SDS011;12743;52.262;6.172;2022-09-09T04:23:25;6.85;;;2.90;;
24585;SDS011;12743;52.262;6.172;2022-09-09T04:25:55;5.43;;;2.70;;
24585;SDS011;12743;52.262;6.172;2022-09-09T04:28:22;8.27;;;3.00;;
24585;SDS011;12743;52.262;6.172;2022-09-09T04:30:49;3.73;;;1.23;;
24585;SDS011;12743;52.262;6.172;2022-09-09T04:33:15;4.72;;;1.73;;
24585;SDS011;12743;52.262;6.172;2022-09-09T04:35:46;4.70;;;2.05;;
24585;SDS011;12743;52.262;6.172;2022-09-09T04:38:14;8.45;;;3.03;;
24585;SDS011;12743;52.262;6.172;2022-09-09T04:40:46;6.30;;;3.20;;
24585;SDS011;12743;52.262;6.172;2022-09-09T04:43:11;6.87;;;2.80;;
24585;SDS011;12743;52.262;6.172;2022-09-09T04:45:37;7.47;;;3.45;;
24585;SDS011;12743;52.262;6.172;2022-09-09T04:48:02;6.87;;;2.37;;
24585;SDS011;12743;52.262;6.172;2022-09-09T04:50:29;8.25;;;3.00;;
24585;SDS011;12743;52.262;6.172;2022-09-09T04:52:59;8.43;;;3.50;;
24585;SDS011;12743;52.262;6.172;2022-09-09T04:55:26;9.95;;;3.92;;
24585;SDS011;12743;52.262;6.172;2022-09-09T04:57:52;7.20;;;3.27;;
24585;SDS011;12743;52.262;6.172;2022-09-09T05:00:18;8.67;;;4.13;;
24585;SDS011;12743;52.262;6.172;2022-09-09T05:02:44;7.82;;;3.80;;
24585;SDS011;12743;52.262;6.172;2022-09-09T05:05:11;9.35;;;3.67;;
24585;SDS011;12743;52.262;6.172;2022-09-09T05:07:37;9.70;;;4.10;;
24585;SDS011;12743;52.262;6.172;2022-09-09T05:10:02;9.20;;;3.95;;
24585;SDS011;12743;52.262;6.172;2022-09-09T05:12:30;7.50;;;3.70;;
24585;SDS011;12743;52.262;6.172;2022-09-09T05:14:56;12.87;;;4.17;;
24585;SDS011;12743;52.262;6.172;2022-09-09T05:17:22;9.38;;;3.85;;
24585;SDS011;12743;52.262;6.172;2022-09-09T05:19:48;9.73;;;3.50;;
24585;SDS011;12743;52.262;6.172;2022-09-09T05:22:18;6.22;;;2.40;;
24585;SDS011;12743;52.262;6.172;2022-09-09T05:24:49;7.22;;;3.50;;
24585;SDS011;12743;52.262;6.172;2022-09-09T05:27:18;10.83;;;3.20;;
24585;SDS011;12743;52.262;6.172;2022-09-09T05:29:45;6.68;;;3.00;;
24585;SDS011;12743;52.262;6.172;2022-09-09T05:32:12;8.18;;;3.72;;
24585;SDS011;12743;52.262;6.172;2022-09-09T05:34:40;8.10;;;2.65;;
24585;SDS011;12743;52.262;6.172;2022-09-09T05:37:05;7.83;;;3.60;;
24585;SDS011;12743;52.262;6.172;2022-09-09T05:39:33;10.70;;;2.65;;
24585;SDS011;12743;52.262;6.172;2022-09-09T05:41:59;11.27;;;3.00;;
24585;SDS011;12743;52.262;6.172;2022-09-09T05:44:24;5.70;;;2.03;;
24585;SDS011;12743;52.262;6.172;2022-09-09T05:46:53;9.60;;;3.45;;
24585;SDS011;12743;52.262;6.172;2022-09-09T05:49:20;9.55;;;4.05;;
24585;SDS011;12743;52.262;6.172;2022-09-09T05:51:47;8.10;;;3.58;;
24585;SDS011;12743;52.262;6.172;2022-09-09T05:54:14;7.93;;;3.67;;
24585;SDS011;12743;52.262;6.172;2022-09-09T05:56:43;9.40;;;3.15;;
24585;SDS011;12743;52.262;6.172;2022-09-09T05:59:09;10.00;;;3.95;;
24585;SDS011;12743;52.262;6.172;2022-09-09T06:01:35;9.03;;;3.80;;
24585;SDS011;12743;52.262;6.172;2022-09-09T06:04:06;13.23;;;3.58;;
24585;SDS011;12743;52.262;6.172;2022-09-09T06:06:33;8.70;;;4.10;;
24585;SDS011;12743;52.262;6.172;2022-09-09T06:09:03;7.35;;;2.88;;
24585;SDS011;12743;52.262;6.172;2022-09-09T06:11:34;7.80;;;3.30;;
24585;SDS011;12743;52.262;6.172;2022-09-09T06:14:02;7.10;;;2.75;;
24585;SDS011;12743;52.262;6.172;2022-09-09T06:16:30;9.13;;;3.40;;
24585;SDS011;12743;52.262;6.172;2022-09-09T06:18:59;8.02;;;3.70;;
24585;SDS011;12743;52.262;6.172;2022-09-09T06:21:27;7.85;;;4.22;;
24585;SDS011;12743;52.262;6.172;2022-09-09T06:23:55;8.60;;;3.73;;
24585;SDS011;12743;52.262;6.172;2022-09-09T06:26:22;8.23;;;3.78;;
24585;SDS011;12743;52.262;6.172;2022-09-09T06:28:50;10.35;;;4.13;;
24585;SDS011;12743;52.262;6.172;2022-09-09T06:31:18;10.88;;;4.40;;
24585;SDS011;12743;52.262;6.172;2022-09-09T06:33:50;8.73;;;4.07;;
24585;SDS011;12743;52.262;6.172;2022-09-09T06:38:44;11.05;;;4.18;;
24585;SDS011;12743;52.262;6.172;2022-09-09T06:41:12;10.13;;;3.40;;
24585;SDS011;12743;52.262;6.172;2022-09-09T06:43:39;9.80;;;3.92;;
24585;SDS011;12743;52.262;6.172;2022-09-09T06:46:06;10.03;;;3.63;;
24585;SDS011;12743;52.262;6.172;2022-09-09T06:48:34;9.43;;;4.03;;
24585;SDS011;12743;52.262;6.172;2022-09-09T06:51:05;9.45;;;4.00;;
24585;SDS011;12743;52.262;6.172;2022-09-09T06:53:35;9.87;;;4.20;;
24585;SDS011;12743;52.262;6.172;2022-09-09T06:56:02;10.40;;;3.72;;
24585;SDS011;12743;52.262;6.172;2022-09-09T06:58:42;12.68;;;4.15;;
24585;SDS011;12743;52.262;6.172;2022-09-09T07:01:12;10.48;;;3.45;;
24585;SDS011;12743;52.262;6.172;2022-09-09T07:03:39;9.35;;;3.90;;
24585;SDS011;12743;52.262;6.172;2022-09-09T07:06:05;9.23;;;3.87;;
24585;SDS011;12743;52.262;6.172;2022-09-09T07:08:32;9.75;;;4.03;;
24585;SDS011;12743;52.262;6.172;2022-09-09T07:11:05;12.68;;;3.92;;
24585;SDS011;12743;52.262;6.172;2022-09-09T07:13:35;14.05;;;3.83;;
24585;SDS011;12743;52.262;6.172;2022-09-09T07:16:03;8.53;;;3.13;;
24585;SDS011;12743;52.262;6.172;2022-09-09T07:18:39;11.50;;;4.03;;
24585;SDS011;12743;52.262;6.172;2022-09-09T07:21:05;10.10;;;3.50;;
24585;SDS011;12743;52.262;6.172;2022-09-09T07:23:31;8.67;;;2.43;;
24585;SDS011;12743;52.262;6.172;2022-09-09T07:25:58;10.60;;;3.75;;
24585;SDS011;12743;52.262;6.172;2022-09-09T07:28:24;14.45;;;3.35;;
24585;SDS011;12743;52.262;6.172;2022-09-09T07:30:55;9.95;;;3.25;;
24585;SDS011;12743;52.262;6.172;2022-09-09T07:33:20;7.72;;;2.90;;
24585;SDS011;12743;52.262;6.172;2022-09-09T07:35:46;8.73;;;3.20;;
24585;SDS011;12743;52.262;6.172;2022-09-09T07:38:11;9.80;;;3.57;;
24585;SDS011;12743;52.262;6.172;2022-09-09T07:40:37;11.20;;;3.53;;
24585;SDS011;12743;52.262;6.172;2022-09-09T07:43:03;9.63;;;3.17;;
24585;SDS011;12743;52.262;6.172;2022-09-09T07:45:29;9.45;;;2.97;;
24585;SDS011;12743;52.262;6.172;2022-09-09T07:47:57;8.27;;;2.40;;
24585;SDS011;12743;52.262;6.172;2022-09-09T07:50:23;9.88;;;2.65;;
24585;SDS011;12743;52.262;6.172;2022-09-09T07:52:51;9.13;;;2.30;;
24585;SDS011;12743;52.262;6.172;2022-09-09T07:55:16;8.73;;;2.22;;
24585;SDS011;12743;52.262;6.172;2022-09-09T07:57:42;8.00;;;2.22;;
24585;SDS011;12743;52.262;6.172;2022-09-09T08:00:08;10.83;;;2.60;;
24585;SDS011;12743;52.262;6.172;2022-09-09T08:02:40;7.80;;;2.10;;
24585;SDS011;12743;52.262;6.172;2022-09-09T08:05:08;10.32;;;1.85;;
24585;SDS011;12743;52.262;6.172;2022-09-09T08:07:35;7.95;;;1.80;;
24585;SDS011;12743;52.262;6.172;2022-09-09T08:10:01;9.10;;;2.15;;
24585;SDS011;12743;52.262;6.172;2022-09-09T08:12:30;8.67;;;2.00;;
24585;SDS011;12743;52.262;6.172;2022-09-09T08:14:56;8.90;;;2.20;;
24585;SDS011;12743;52.262;6.172;2022-09-09T08:17:24;12.40;;;2.50;;
24585;SDS011;12743;52.262;6.172;2022-09-09T08:19:49;11.33;;;2.27;;
24585;SDS011;12743;52.262;6.172;2022-09-09T08:22:20;8.68;;;2.00;;
24585;SDS011;12743;52.262;6.172;2022-09-09T08:24:46;7.38;;;2.13;;
24585;SDS011;12743;52.262;6.172;2022-09-09T08:27:12;14.40;;;1.92;;
24585;SDS011;12743;52.262;6.172;2022-09-09T08:29:37;9.37;;;2.43;;
24585;SDS011;12743;52.262;6.172;2022-09-09T08:32:03;13.25;;;2.10;;
24585;SDS011;12743;52.262;6.172;2022-09-09T08:34:30;7.67;;;2.00;;
24585;SDS011;12743;52.262;6.172;2022-09-09T08:36:58;7.50;;;1.90;;
24585;SDS011;12743;52.262;6.172;2022-09-09T08:39:31;7.43;;;2.30;;
24585;SDS011;12743;52.262;6.172;2022-09-09T08:44:54;7.35;;;1.67;;
24585;SDS011;12743;52.262;6.172;2022-09-09T08:50:26;13.43;;;2.05;;
24585;SDS011;12743;52.262;6.172;2022-09-09T08:55:41;9.45;;;1.60;;
24585;SDS011;12743;52.262;6.172;2022-09-09T08:58:14;8.80;;;1.52;;
24585;SDS011;12743;52.262;6.172;2022-09-09T09:11:55;9.75;;;1.73;;
24585;SDS011;12743;52.262;6.172;2022-09-09T09:14:30;8.53;;;1.60;;
24585;SDS011;12743;52.262;6.172;2022-09-09T09:19:41;9.25;;;1.63;;
24585;SDS011;12743;52.262;6.172;2022-09-09T09:22:26;7.03;;;1.70;;
24585;SDS011;12743;52.262;6.172;2022-09-09T09:25:11;7.68;;;1.83;;
24585;SDS011;12743;52.262;6.172;2022-09-09T09:27:46;9.90;;;1.40;;
24585;SDS011;12743;52.262;6.172;2022-09-09T09:30:19;10.20;;;1.98;;
24585;SDS011;12743;52.262;6.172;2022-09-09T09:35:20;9.85;;;1.83;;
24585;SDS011;12743;52.262;6.172;2022-09-09T09:37:46;6.57;;;1.50;;
24585;SDS011;12743;52.262;6.172;2022-09-09T09:40:14;10.18;;;1.70;;
24585;SDS011;12743;52.262;6.172;2022-09-09T09:42:55;7.00;;;1.20;;
24585;SDS011;12743;52.262;6.172;2022-09-09T09:48:05;9.52;;;1.52;;
24585;SDS011;12743;52.262;6.172;2022-09-09T09:50:33;6.57;;;1.63;;
24585;SDS011;12743;52.262;6.172;2022-09-09T09:53:04;9.05;;;1.55;;
24585;SDS011;12743;52.262;6.172;2022-09-09T09:55:36;11.90;;;1.80;;
24585;SDS011;12743;52.262;6.172;2022-09-09T09:58:15;9.95;;;1.63;;
24585;SDS011;12743;52.262;6.172;2022-09-09T10:00:51;5.78;;;1.45;;
24585;SDS011;12743;52.262;6.172;2022-09-09T10:03:25;8.53;;;1.77;;
24585;SDS011;12743;52.262;6.172;2022-09-09T10:05:57;7.63;;;1.63;;
24585;SDS011;12743;52.262;6.172;2022-09-09T10:08:23;8.48;;;1.63;;
24585;SDS011;12743;52.262;6.172;2022-09-09T10:19:06;6.65;;;1.10;;
24585;SDS011;12743;52.262;6.172;2022-09-09T10:21:54;9.43;;;1.50;;
24585;SDS011;12743;52.262;6.172;2022-09-09T10:27:19;9.00;;;1.50;;
24585;SDS011;12743;52.262;6.172;2022-09-09T10:35:02;4.88;;;1.30;;
24585;SDS011;12743;52.262;6.172;2022-09-09T10:42:55;9.23;;;1.37;;
24585;SDS011;12743;52.262;6.172;2022-09-09T10:45:53;6.50;;;1.05;;
24585;SDS011;12743;52.262;6.172;2022-09-09T10:51:18;5.50;;;0.82;;
24585;SDS011;12743;52.262;6.172;2022-09-09T10:57:13;5.47;;;0.80;;
24585;SDS011;12743;52.262;6.172;2022-09-09T10:59:50;6.20;;;0.90;;
24585;SDS011;12743;52.262;6.172;2022-09-09T11:02:28;7.65;;;1.35;;
24585;SDS011;12743;52.262;6.172;2022-09-09T11:04:57;6.72;;;1.20;;
24585;SDS011;12743;52.262;6.172;2022-09-09T11:07:44;8.57;;;1.30;;
24585;SDS011;12743;52.262;6.172;2022-09-09T11:10:34;7.13;;;1.20;;
24585;SDS011;12743;52.262;6.172;2022-09-09T11:13:25;4.07;;;0.60;;
24585;SDS011;12743;52.262;6.172;2022-09-09T11:16:00;7.65;;;0.85;;
24585;SDS011;12743;52.262;6.172;2022-09-09T11:18:49;8.77;;;1.30;;
24585;SDS011;12743;52.262;6.172;2022-09-09T11:21:31;6.80;;;1.17;;
24585;SDS011;12743;52.262;6.172;2022-09-09T11:24:03;5.93;;;1.10;;
24585;SDS011;12743;52.262;6.172;2022-09-09T11:26:39;4.90;;;0.85;;
24585;SDS011;12743;52.262;6.172;2022-09-09T11:31:46;8.27;;;1.27;;
24585;SDS011;12743;52.262;6.172;2022-09-09T11:40:09;5.70;;;0.88;;
24585;SDS011;12743;52.262;6.172;2022-09-09T11:42:42;7.33;;;0.80;;
24585;SDS011;12743;52.262;6.172;2022-09-09T11:45:26;6.43;;;0.98;;
24585;SDS011;12743;52.262;6.172;2022-09-09T11:47:57;7.97;;;0.88;;
24585;SDS011;12743;52.262;6.172;2022-09-09T11:52:50;6.23;;;0.83;;
24585;SDS011;12743;52.262;6.172;2022-09-09T11:55:27;7.30;;;0.73;;
24585;SDS011;12743;52.262;6.172;2022-09-09T11:57:58;7.38;;;1.00;;
24585;SDS011;12743;52.262;6.172;2022-09-09T12:08:58;11.00;;;1.70;;
24585;SDS011;12743;52.262;6.172;2022-09-09T12:11:50;9.13;;;1.55;;
24585;SDS011;12743;52.262;6.172;2022-09-09T12:19:39;8.80;;;1.95;;
24585;SDS011;12743;52.262;6.172;2022-09-09T12:22:14;8.43;;;1.30;;
24585;SDS011;12743;52.262;6.172;2022-09-09T12:24:49;6.73;;;1.27;;
24585;SDS011;12743;52.262;6.172;2022-09-09T12:27:33;5.65;;;1.00;;
24585;SDS011;12743;52.262;6.172;2022-09-09T12:30:07;4.25;;;0.73;;
24585;SDS011;12743;52.262;6.172;2022-09-09T12:32:36;5.13;;;0.88;;
24585;SDS011;12743;52.262;6.172;2022-09-09T12:35:03;5.38;;;0.90;;
24585;SDS011;12743;52.262;6.172;2022-09-09T12:40:23;3.88;;;0.60;;
24585;SDS011;12743;52.262;6.172;2022-09-09T12:42:48;6.50;;;0.95;;
24585;SDS011;12743;52.262;6.172;2022-09-09T12:45:24;6.77;;;0.80;;
24585;SDS011;12743;52.262;6.172;2022-09-09T12:50:35;5.10;;;0.85;;
24585;SDS011;12743;52.262;6.172;2022-09-09T12:53:06;3.45;;;0.70;;
24585;SDS011;12743;52.262;6.172;2022-09-09T12:55:37;4.25;;;0.90;;
24585;SDS011;12743;52.262;6.172;2022-09-09T12:58:04;4.70;;;0.80;;
24585;SDS011;12743;52.262;6.172;2022-09-09T13:00:31;4.45;;;0.77;;
24585;SDS011;12743;52.262;6.172;2022-09-09T13:02:58;6.00;;;0.93;;
24585;SDS011;12743;52.262;6.172;2022-09-09T13:05:27;7.15;;;0.93;;
24585;SDS011;12743;52.262;6.172;2022-09-09T13:08:03;4.00;;;0.85;;
24585;SDS011;12743;52.262;6.172;2022-09-09T13:10:31;4.97;;;0.80;;
24585;SDS011;12743;52.262;6.172;2022-09-09T13:12:59;3.30;;;0.50;;
24585;SDS011;12743;52.262;6.172;2022-09-09T13:15:26;5.43;;;0.87;;
24585;SDS011;12743;52.262;6.172;2022-09-09T13:17:57;6.03;;;0.85;;
24585;SDS011;12743;52.262;6.172;2022-09-09T13:20:25;7.13;;;1.00;;
24585;SDS011;12743;52.262;6.172;2022-09-09T13:22:52;5.30;;;0.88;;
24585;SDS011;12743;52.262;6.172;2022-09-09T13:25:23;6.20;;;0.90;;
24585;SDS011;12743;52.262;6.172;2022-09-09T13:27:51;5.80;;;1.17;;
24585;SDS011;12743;52.262;6.172;2022-09-09T13:30:30;5.90;;;1.02;;
24585;SDS011;12743;52.262;6.172;2022-09-09T13:35:36;4.55;;;1.10;;
24585;SDS011;12743;52.262;6.172;2022-09-09T13:38:15;4.60;;;0.73;;
24585;SDS011;12743;52.262;6.172;2022-09-09T13:40:51;5.80;;;0.80;;
24585;SDS011;12743;52.262;6.172;2022-09-09T13:43:20;7.63;;;0.80;;
24585;SDS011;12743;52.262;6.172;2022-09-09T13:45:54;3.22;;;0.80;;
24585;SDS011;12743;52.262;6.172;2022-09-09T13:48:24;4.40;;;0.80;;
24585;SDS011;12743;52.262;6.172;2022-09-09T13:50:54;6.47;;;1.13;;
24585;SDS011;12743;52.262;6.172;2022-09-09T13:53:20;4.60;;;0.73;;
24585;SDS011;12743;52.262;6.172;2022-09-09T13:55:46;4.67;;;0.70;;
24585;SDS011;12743;52.262;6.172;2022-09-09T13:58:15;3.97;;;0.70;;
24585;SDS011;12743;52.262;6.172;2022-09-09T14:00:41;4.72;;;0.95;;
24585;SDS011;12743;52.262;6.172;2022-09-09T14:03:08;4.53;;;1.30;;
24585;SDS011;12743;52.262;6.172;2022-09-09T14:05:34;3.37;;;1.03;;
24585;SDS011;12743;52.262;6.172;2022-09-09T14:07:59;3.90;;;0.60;;
24585;SDS011;12743;52.262;6.172;2022-09-09T14:10:27;4.68;;;0.77;;
24585;SDS011;12743;52.262;6.172;2022-09-09T14:12:53;4.30;;;1.30;;
24585;SDS011;12743;52.262;6.172;2022-09-09T14:15:18;4.13;;;1.25;;
24585;SDS011;12743;52.262;6.172;2022-09-09T14:17:44;5.63;;;1.03;;
24585;SDS011;12743;52.262;6.172;2022-09-09T14:20:09;5.07;;;0.90;;
24585;SDS011;12743;52.262;6.172;2022-09-09T14:22:36;5.45;;;0.80;;
24585;SDS011;12743;52.262;6.172;2022-09-09T14:25:04;4.40;;;1.08;;
24585;SDS011;12743;52.262;6.172;2022-09-09T14:27:30;3.75;;;0.93;;
24585;SDS011;12743;52.262;6.172;2022-09-09T14:29:55;3.00;;;0.90;;
24585;SDS011;12743;52.262;6.172;2022-09-09T14:32:22;7.05;;;1.15;;
24585;SDS011;12743;52.262;6.172;2022-09-09T14:34:47;5.60;;;1.30;;
24585;SDS011;12743;52.262;6.172;2022-09-09T14:37:15;4.88;;;1.00;;
24585;SDS011;12743;52.262;6.172;2022-09-09T14:39:43;5.00;;;1.20;;
24585;SDS011;12743;52.262;6.172;2022-09-09T14:42:15;4.63;;;0.77;;
24585;SDS011;12743;52.262;6.172;2022-09-09T14:44:41;5.03;;;0.90;;
24585;SDS011;12743;52.262;6.172;2022-09-09T14:47:07;5.53;;;1.30;;
24585;SDS011;12743;52.262;6.172;2022-09-09T14:49:33;5.85;;;1.13;;
24585;SDS011;12743;52.262;6.172;2022-09-09T14:51:59;7.20;;;1.33;;
24585;SDS011;12743;52.262;6.172;2022-09-09T14:54:24;7.43;;;1.17;;
24585;SDS011;12743;52.262;6.172;2022-09-09T14:56:50;5.57;;;1.30;;
24585;SDS011;12743;52.262;6.172;2022-09-09T14:59:15;4.97;;;1.25;;
24585;SDS011;12743;52.262;6.172;2022-09-09T15:01:40;7.63;;;1.50;;
24585;SDS011;12743;52.262;6.172;2022-09-09T15:04:06;8.30;;;1.90;;
24585;SDS011;12743;52.262;6.172;2022-09-09T15:06:32;7.03;;;1.97;;
24585;SDS011;12743;52.262;6.172;2022-09-09T15:09:00;8.73;;;1.95;;
24585;SDS011;12743;52.262;6.172;2022-09-09T15:11:27;6.93;;;1.77;;
24585;SDS011;12743;52.262;6.172;2022-09-09T15:13:55;5.43;;;1.63;;
24585;SDS011;12743;52.262;6.172;2022-09-09T15:16:25;4.65;;;1.55;;
24585;SDS011;12743;52.262;6.172;2022-09-09T15:18:53;6.43;;;1.90;;
24585;SDS011;12743;52.262;6.172;2022-09-09T15:21:21;6.03;;;2.25;;
24585;SDS011;12743;52.262;6.172;2022-09-09T15:23:47;5.25;;;1.80;;
24585;SDS011;12743;52.262;6.172;2022-09-09T15:26:13;8.23;;;2.05;;
24585;SDS011;12743;52.262;6.172;2022-09-09T15:28:39;7.87;;;1.83;;
24585;SDS011;12743;52.262;6.172;2022-09-09T15:31:06;7.13;;;2.00;;
24585;SDS011;12743;52.262;6.172;2022-09-09T15:33:34;7.43;;;2.20;;
24585;SDS011;12743;52.262;6.172;2022-09-09T15:36:12;7.30;;;1.80;;
24585;SDS011;12743;52.262;6.172;2022-09-09T15:38:42;6.38;;;2.03;;
24585;SDS011;12743;52.262;6.172;2022-09-09T15:41:07;6.87;;;1.87;;
24585;SDS011;12743;52.262;6.172;2022-09-09T15:43:32;7.53;;;1.60;;
24585;SDS011;12743;52.262;6.172;2022-09-09T15:45:59;5.67;;;1.57;;
24585;SDS011;12743;52.262;6.172;2022-09-09T15:48:56;5.80;;;1.85;;
24585;SDS011;12743;52.262;6.172;2022-09-09T15:51:29;5.47;;;1.75;;
24585;SDS011;12743;52.262;6.172;2022-09-09T15:54:05;6.78;;;1.60;;
24585;SDS011;12743;52.262;6.172;2022-09-09T15:56:31;7.07;;;1.37;;
24585;SDS011;12743;52.262;6.172;2022-09-09T15:58:57;5.50;;;1.33;;
24585;SDS011;12743;52.262;6.172;2022-09-09T16:01:27;4.13;;;1.20;;
24585;SDS011;12743;52.262;6.172;2022-09-09T16:03:56;7.45;;;1.48;;
24585;SDS011;12743;52.262;6.172;2022-09-09T16:06:23;5.07;;;1.30;;
24585;SDS011;12743;52.262;6.172;2022-09-09T16:08:50;7.93;;;1.60;;
24585;SDS011;12743;52.262;6.172;2022-09-09T16:11:18;8.20;;;1.60;;
24585;SDS011;12743;52.262;6.172;2022-09-09T16:13:49;6.15;;;1.40;;
24585;SDS011;12743;52.262;6.172;2022-09-09T16:16:17;6.65;;;1.70;;
24585;SDS011;12743;52.262;6.172;2022-09-09T16:18:51;6.63;;;1.50;;
24585;SDS011;12743;52.262;6.172;2022-09-09T16:21:22;6.18;;;1.35;;
24585;SDS011;12743;52.262;6.172;2022-09-09T16:23:51;7.72;;;1.70;;
24585;SDS011;12743;52.262;6.172;2022-09-09T16:26:18;7.45;;;1.42;;
24585;SDS011;12743;52.262;6.172;2022-09-09T16:28:44;5.75;;;1.33;;
24585;SDS011;12743;52.262;6.172;2022-09-09T16:31:13;5.50;;;1.60;;
24585;SDS011;12743;52.262;6.172;2022-09-09T16:33:40;7.13;;;1.73;;
24585;SDS011;12743;52.262;6.172;2022-09-09T16:36:07;6.05;;;1.60;;
24585;SDS011;12743;52.262;6.172;2022-09-09T16:38:33;8.57;;;1.80;;
24585;SDS011;12743;52.262;6.172;2022-09-09T16:41:00;6.53;;;1.80;;
24585;SDS011;12743;52.262;6.172;2022-09-09T16:43:27;7.90;;;2.57;;
24585;SDS011;12743;52.262;6.172;2022-09-09T16:45:52;6.30;;;2.10;;
24585;SDS011;12743;52.262;6.172;2022-09-09T16:48:18;6.17;;;2.50;;
24585;SDS011;12743;52.262;6.172;2022-09-09T16:50:44;6.25;;;1.73;;
24585;SDS011;12743;52.262;6.172;2022-09-09T16:53:10;8.50;;;1.85;;
24585;SDS011;12743;52.262;6.172;2022-09-09T16:55:38;7.15;;;2.08;;
24585;SDS011;12743;52.262;6.172;2022-09-09T16:58:04;6.60;;;2.10;;
24585;SDS011;12743;52.262;6.172;2022-09-09T17:00:30;7.70;;;2.40;;
24585;SDS011;12743;52.262;6.172;2022-09-09T17:02:55;7.50;;;2.43;;
24585;SDS011;12743;52.262;6.172;2022-09-09T17:05:20;10.00;;;2.70;;
24585;SDS011;12743;52.262;6.172;2022-09-09T17:07:46;7.10;;;2.90;;
24585;SDS011;12743;52.262;6.172;2022-09-09T17:10:11;10.87;;;2.73;;
24585;SDS011;12743;52.262;6.172;2022-09-09T17:12:36;7.13;;;2.63;;
24585;SDS011;12743;52.262;6.172;2022-09-09T17:15:02;7.97;;;1.93;;
24585;SDS011;12743;52.262;6.172;2022-09-09T17:17:28;4.50;;;1.80;;
24585;SDS011;12743;52.262;6.172;2022-09-09T17:19:54;7.10;;;1.80;;
24585;SDS011;12743;52.262;6.172;2022-09-09T17:22:19;7.40;;;1.80;;
24585;SDS011;12743;52.262;6.172;2022-09-09T17:24:45;3.67;;;1.33;;
24585;SDS011;12743;52.262;6.172;2022-09-09T17:27:11;7.10;;;2.10;;